sensor_id;sensor_type;location;lat;lon;timestamp;temperature;humidity
16827;DHT22;8530;49.540;8.576;2022-11-11T00:00:17;6.50;99.90
16827;DHT22;8530;49.540;8.576;2022-11-11T00:02:45;6.40;99.90
16827;DHT22;8530;49.540;8.576;2022-11-11T00:05:14;6.40;99.90
16827;DHT22;8530;49.540;8.576;2022-11-11T00:07:41;6.40;99.90
16827;DHT22;8530;49.540;8.576;2022-11-11T00:10:08;6.40;99.90
16827;DHT22;8530;49.540;8.576;2022-11-11T00:12:35;6.40;99.90
16827;DHT22;8530;49.540;8.576;2022-11-11T00:15:03;6.30;99.90
16827;DHT22;8530;49.540;8.576;2022-11-11T00:17:31;6.30;99.90
16827;DHT22;8530;49.540;8.576;2022-11-11T00:20:16;6.30;99.90
16827;DHT22;8530;49.540;8.576;2022-11-11T00:23:00;6.30;99.90
16827;DHT22;8530;49.540;8.576;2022-11-11T00:25:45;6.30;99.90
16827;DHT22;8530;49.540;8.576;2022-11-11T00:28:11;6.20;99.90
16827;DHT22;8530;49.540;8.576;2022-11-11T00:30:40;6.20;99.90
16827;DHT22;8530;49.540;8.576;2022-11-11T00:33:07;6.20;99.90
16827;DHT22;8530;49.540;8.576;2022-11-11T00:35:34;6.20;99.90
16827;DHT22;8530;49.540;8.576;2022-11-11T00:38:18;6.20;99.90
16827;DHT22;8530;49.540;8.576;2022-11-11T00:40:58;6.20;99.90
16827;DHT22;8530;49.540;8.576;2022-11-11T00:43:26;6.10;99.90
16827;DHT22;8530;49.540;8.576;2022-11-11T00:45:54;6.10;99.90
16827;DHT22;8530;49.540;8.576;2022-11-11T00:48:41;6.10;99.90
16827;DHT22;8530;49.540;8.576;2022-11-11T00:51:25;6.10;99.90
16827;DHT22;8530;49.540;8.576;2022-11-11T00:53:52;6.00;99.90
16827;DHT22;8530;49.540;8.576;2022-11-11T00:56:19;6.00;99.90
16827;DHT22;8530;49.540;8.576;2022-11-11T00:58:46;6.00;99.90
16827;DHT22;8530;49.540;8.576;2022-11-11T01:01:14;5.90;99.90
16827;DHT22;8530;49.540;8.576;2022-11-11T01:03:41;5.90;99.90
16827;DHT22;8530;49.540;8.576;2022-11-11T01:06:11;5.90;99.90
16827;DHT22;8530;49.540;8.576;2022-11-11T01:08:39;5.80;99.90
16827;DHT22;8530;49.540;8.576;2022-11-11T01:11:12;5.80;99.90
16827;DHT22;8530;49.540;8.576;2022-11-11T01:13:40;5.80;99.90
16827;DHT22;8530;49.540;8.576;2022-11-11T01:16:09;5.70;99.90
16827;DHT22;8530;49.540;8.576;2022-11-11T01:18:39;5.70;99.90
16827;DHT22;8530;49.540;8.576;2022-11-11T01:21:09;5.70;99.90
16827;DHT22;8530;49.540;8.576;2022-11-11T01:23:38;5.70;99.90
16827;DHT22;8530;49.540;8.576;2022-11-11T01:26:09;5.70;99.90
16827;DHT22;8530;49.540;8.576;2022-11-11T01:28:37;5.70;99.90
16827;DHT22;8530;49.540;8.576;2022-11-11T01:31:05;5.70;99.90
16827;DHT22;8530;49.540;8.576;2022-11-11T01:33:33;5.70;99.90
16827;DHT22;8530;49.540;8.576;2022-11-11T01:36:06;5.70;99.90
16827;DHT22;8530;49.540;8.576;2022-11-11T01:38:33;5.60;99.90
16827;DHT22;8530;49.540;8.576;2022-11-11T01:41:01;5.60;99.90
16827;DHT22;8530;49.540;8.576;2022-11-11T01:43:50;5.70;99.90
16827;DHT22;8530;49.540;8.576;2022-11-11T01:46:23;5.70;99.90
16827;DHT22;8530;49.540;8.576;2022-11-11T01:48:55;5.70;99.90
16827;DHT22;8530;49.540;8.576;2022-11-11T01:51:47;5.80;99.90
16827;DHT22;8530;49.540;8.576;2022-11-11T01:54:18;5.80;99.90
16827;DHT22;8530;49.540;8.576;2022-11-11T01:56:49;5.80;99.90
16827;DHT22;8530;49.540;8.576;2022-11-11T01:59:17;5.90;99.90
16827;DHT22;8530;49.540;8.576;2022-11-11T02:01:44;5.90;99.90
16827;DHT22;8530;49.540;8.576;2022-11-11T02:04:12;6.00;99.90
16827;DHT22;8530;49.540;8.576;2022-11-11T02:07:00;6.00;99.90
16827;DHT22;8530;49.540;8.576;2022-11-11T02:09:28;6.00;99.90
16827;DHT22;8530;49.540;8.576;2022-11-11T02:11:58;6.00;99.90
16827;DHT22;8530;49.540;8.576;2022-11-11T02:14:46;6.10;99.90
16827;DHT22;8530;49.540;8.576;2022-11-11T02:17:14;6.10;99.90
16827;DHT22;8530;49.540;8.576;2022-11-11T02:19:45;6.20;99.90
16827;DHT22;8530;49.540;8.576;2022-11-11T02:22:22;6.20;99.90
16827;DHT22;8530;49.540;8.576;2022-11-11T02:24:51;6.30;99.90
16827;DHT22;8530;49.540;8.576;2022-11-11T02:27:21;6.30;99.90
16827;DHT22;8530;49.540;8.576;2022-11-11T02:29:49;6.30;99.90
16827;DHT22;8530;49.540;8.576;2022-11-11T02:32:17;6.30;99.90
16827;DHT22;8530;49.540;8.576;2022-11-11T02:34:44;6.30;99.90
16827;DHT22;8530;49.540;8.576;2022-11-11T02:37:11;6.30;99.90
16827;DHT22;8530;49.540;8.576;2022-11-11T02:39:41;6.20;99.90
16827;DHT22;8530;49.540;8.576;2022-11-11T02:42:13;6.20;99.90
16827;DHT22;8530;49.540;8.576;2022-11-11T02:44:40;6.20;99.90
16827;DHT22;8530;49.540;8.576;2022-11-11T02:47:07;6.10;99.90
16827;DHT22;8530;49.540;8.576;2022-11-11T02:49:35;6.10;99.90
16827;DHT22;8530;49.540;8.576;2022-11-11T02:52:02;6.10;99.90
16827;DHT22;8530;49.540;8.576;2022-11-11T02:54:28;6.00;99.90
16827;DHT22;8530;49.540;8.576;2022-11-11T02:56:55;6.00;99.90
16827;DHT22;8530;49.540;8.576;2022-11-11T02:59:36;6.00;99.90
16827;DHT22;8530;49.540;8.576;2022-11-11T03:02:04;5.90;99.90
16827;DHT22;8530;49.540;8.576;2022-11-11T03:04:31;5.90;99.90
16827;DHT22;8530;49.540;8.576;2022-11-11T03:06:58;5.80;99.90
16827;DHT22;8530;49.540;8.576;2022-11-11T03:09:25;5.80;99.90
16827;DHT22;8530;49.540;8.576;2022-11-11T03:11:52;5.80;99.90
16827;DHT22;8530;49.540;8.576;2022-11-11T03:14:19;5.70;99.90
16827;DHT22;8530;49.540;8.576;2022-11-11T03:16:47;5.70;99.90
16827;DHT22;8530;49.540;8.576;2022-11-11T03:19:31;5.60;99.90
16827;DHT22;8530;49.540;8.576;2022-11-11T03:22:00;5.60;99.90
16827;DHT22;8530;49.540;8.576;2022-11-11T03:24:28;5.60;99.90
16827;DHT22;8530;49.540;8.576;2022-11-11T03:27:15;5.60;99.90
16827;DHT22;8530;49.540;8.576;2022-11-11T03:29:42;5.50;99.90
16827;DHT22;8530;49.540;8.576;2022-11-11T03:32:10;5.50;99.90
16827;DHT22;8530;49.540;8.576;2022-11-11T03:34:37;5.50;99.90
16827;DHT22;8530;49.540;8.576;2022-11-11T03:37:05;5.50;99.90
16827;DHT22;8530;49.540;8.576;2022-11-11T03:39:49;5.50;99.90
16827;DHT22;8530;49.540;8.576;2022-11-11T03:42:16;5.40;99.90
16827;DHT22;8530;49.540;8.576;2022-11-11T03:44:44;5.40;99.90
16827;DHT22;8530;49.540;8.576;2022-11-11T03:47:12;5.40;99.90
16827;DHT22;8530;49.540;8.576;2022-11-11T03:49:40;5.40;99.90
16827;DHT22;8530;49.540;8.576;2022-11-11T03:52:07;5.30;99.90
16827;DHT22;8530;49.540;8.576;2022-11-11T03:54:34;5.30;99.90
16827;DHT22;8530;49.540;8.576;2022-11-11T03:57:01;5.30;99.90
16827;DHT22;8530;49.540;8.576;2022-11-11T03:59:45;5.20;99.90
16827;DHT22;8530;49.540;8.576;2022-11-11T04:02:13;5.20;99.90
16827;DHT22;8530;49.540;8.576;2022-11-11T04:04:57;5.20;99.90
16827;DHT22;8530;49.540;8.576;2022-11-11T04:07:41;5.20;99.90
16827;DHT22;8530;49.540;8.576;2022-11-11T04:10:28;5.20;99.90
16827;DHT22;8530;49.540;8.576;2022-11-11T04:12:56;5.20;99.90
16827;DHT22;8530;49.540;8.576;2022-11-11T04:15:41;5.10;99.90
16827;DHT22;8530;49.540;8.576;2022-11-11T04:18:26;5.10;99.90
16827;DHT22;8530;49.540;8.576;2022-11-11T04:21:07;5.10;99.90
16827;DHT22;8530;49.540;8.576;2022-11-11T04:23:52;5.00;99.90
16827;DHT22;8530;49.540;8.576;2022-11-11T04:26:19;5.00;99.90
16827;DHT22;8530;49.540;8.576;2022-11-11T04:28:45;5.00;99.90
16827;DHT22;8530;49.540;8.576;2022-11-11T04:31:29;5.00;99.90
16827;DHT22;8530;49.540;8.576;2022-11-11T04:33:57;5.00;99.90
16827;DHT22;8530;49.540;8.576;2022-11-11T04:36:23;5.00;99.90
16827;DHT22;8530;49.540;8.576;2022-11-11T04:38:50;5.00;99.90
16827;DHT22;8530;49.540;8.576;2022-11-11T04:41:34;5.00;99.90
16827;DHT22;8530;49.540;8.576;2022-11-11T04:44:00;5.10;99.90
16827;DHT22;8530;49.540;8.576;2022-11-11T04:46:45;5.20;99.90
16827;DHT22;8530;49.540;8.576;2022-11-11T04:49:13;5.30;99.90
16827;DHT22;8530;49.540;8.576;2022-11-11T04:51:40;5.30;99.90
16827;DHT22;8530;49.540;8.576;2022-11-11T04:54:24;5.40;99.90
16827;DHT22;8530;49.540;8.576;2022-11-11T04:56:51;5.40;99.90
16827;DHT22;8530;49.540;8.576;2022-11-11T04:59:19;5.40;99.90
16827;DHT22;8530;49.540;8.576;2022-11-11T05:01:45;5.50;99.90
16827;DHT22;8530;49.540;8.576;2022-11-11T05:04:31;5.50;99.90
16827;DHT22;8530;49.540;8.576;2022-11-11T05:06:58;5.50;99.90
16827;DHT22;8530;49.540;8.576;2022-11-11T05:09:41;5.50;99.90
16827;DHT22;8530;49.540;8.576;2022-11-11T05:12:08;5.60;99.90
16827;DHT22;8530;49.540;8.576;2022-11-11T05:14:34;5.50;99.90
16827;DHT22;8530;49.540;8.576;2022-11-11T05:17:19;5.50;99.90
16827;DHT22;8530;49.540;8.576;2022-11-11T05:20:05;5.50;99.90
16827;DHT22;8530;49.540;8.576;2022-11-11T05:22:51;5.50;99.90
16827;DHT22;8530;49.540;8.576;2022-11-11T05:25:17;5.50;99.90
16827;DHT22;8530;49.540;8.576;2022-11-11T05:27:56;5.40;99.90
16827;DHT22;8530;49.540;8.576;2022-11-11T05:30:23;5.50;99.90
16827;DHT22;8530;49.540;8.576;2022-11-11T05:32:51;5.50;99.90
16827;DHT22;8530;49.540;8.576;2022-11-11T05:35:19;5.50;99.90
16827;DHT22;8530;49.540;8.576;2022-11-11T05:37:45;5.50;99.90
16827;DHT22;8530;49.540;8.576;2022-11-11T05:40:34;5.50;99.90
16827;DHT22;8530;49.540;8.576;2022-11-11T05:43:00;5.50;99.90
16827;DHT22;8530;49.540;8.576;2022-11-11T05:45:27;5.50;99.90
16827;DHT22;8530;49.540;8.576;2022-11-11T05:47:54;5.50;99.90
16827;DHT22;8530;49.540;8.576;2022-11-11T05:50:22;5.50;99.90
16827;DHT22;8530;49.540;8.576;2022-11-11T05:52:49;5.60;99.90
16827;DHT22;8530;49.540;8.576;2022-11-11T05:55:16;5.60;99.90
16827;DHT22;8530;49.540;8.576;2022-11-11T05:57:43;5.60;99.90
16827;DHT22;8530;49.540;8.576;2022-11-11T06:00:10;5.70;99.90
16827;DHT22;8530;49.540;8.576;2022-11-11T06:02:38;5.70;99.90
16827;DHT22;8530;49.540;8.576;2022-11-11T06:05:06;5.80;99.90
16827;DHT22;8530;49.540;8.576;2022-11-11T06:07:36;5.80;99.90
16827;DHT22;8530;49.540;8.576;2022-11-11T06:10:04;5.80;99.90
16827;DHT22;8530;49.540;8.576;2022-11-11T06:12:53;5.90;99.90
16827;DHT22;8530;49.540;8.576;2022-11-11T06:15:33;5.90;99.90
16827;DHT22;8530;49.540;8.576;2022-11-11T06:18:00;6.00;99.90
16827;DHT22;8530;49.540;8.576;2022-11-11T06:20:27;6.10;99.90
16827;DHT22;8530;49.540;8.576;2022-11-11T06:22:56;6.10;99.90
16827;DHT22;8530;49.540;8.576;2022-11-11T06:25:23;6.10;99.90
16827;DHT22;8530;49.540;8.576;2022-11-11T06:28:07;6.10;99.90
16827;DHT22;8530;49.540;8.576;2022-11-11T06:30:34;6.10;99.90
16827;DHT22;8530;49.540;8.576;2022-11-11T06:33:01;6.10;99.90
16827;DHT22;8530;49.540;8.576;2022-11-11T06:35:28;6.10;99.90
16827;DHT22;8530;49.540;8.576;2022-11-11T06:37:56;6.20;99.90
16827;DHT22;8530;49.540;8.576;2022-11-11T06:40:23;6.20;99.90
16827;DHT22;8530;49.540;8.576;2022-11-11T06:42:49;6.20;99.90
16827;DHT22;8530;49.540;8.576;2022-11-11T06:45:17;6.30;99.90
16827;DHT22;8530;49.540;8.576;2022-11-11T06:47:43;6.30;99.90
16827;DHT22;8530;49.540;8.576;2022-11-11T06:50:10;6.30;99.90
16827;DHT22;8530;49.540;8.576;2022-11-11T06:52:37;6.40;99.90
16827;DHT22;8530;49.540;8.576;2022-11-11T06:55:06;6.40;99.90
16827;DHT22;8530;49.540;8.576;2022-11-11T06:57:33;6.40;99.90
16827;DHT22;8530;49.540;8.576;2022-11-11T06:59:59;6.50;99.90
16827;DHT22;8530;49.540;8.576;2022-11-11T07:02:26;6.50;99.90
16827;DHT22;8530;49.540;8.576;2022-11-11T07:04:53;6.60;99.90
16827;DHT22;8530;49.540;8.576;2022-11-11T07:07:20;6.70;99.90
16827;DHT22;8530;49.540;8.576;2022-11-11T07:09:47;6.80;99.90
16827;DHT22;8530;49.540;8.576;2022-11-11T07:12:15;6.90;99.90
16827;DHT22;8530;49.540;8.576;2022-11-11T07:14:41;7.00;99.90
16827;DHT22;8530;49.540;8.576;2022-11-11T07:17:08;7.00;99.90
16827;DHT22;8530;49.540;8.576;2022-11-11T07:19:35;7.10;99.90
16827;DHT22;8530;49.540;8.576;2022-11-11T07:22:02;7.20;99.90
16827;DHT22;8530;49.540;8.576;2022-11-11T07:24:29;7.30;99.90
16827;DHT22;8530;49.540;8.576;2022-11-11T07:26:56;7.40;99.90
16827;DHT22;8530;49.540;8.576;2022-11-11T07:29:25;7.50;99.90
16827;DHT22;8530;49.540;8.576;2022-11-11T07:31:53;7.60;99.90
16827;DHT22;8530;49.540;8.576;2022-11-11T07:34:20;7.70;99.90
16827;DHT22;8530;49.540;8.576;2022-11-11T07:36:47;7.80;99.90
16827;DHT22;8530;49.540;8.576;2022-11-11T07:39:14;7.90;99.90
16827;DHT22;8530;49.540;8.576;2022-11-11T07:41:41;8.00;99.90
16827;DHT22;8530;49.540;8.576;2022-11-11T07:44:08;8.10;99.90
16827;DHT22;8530;49.540;8.576;2022-11-11T07:46:36;8.20;99.90
16827;DHT22;8530;49.540;8.576;2022-11-11T07:49:02;8.30;99.90
16827;DHT22;8530;49.540;8.576;2022-11-11T07:51:29;8.30;99.90
16827;DHT22;8530;49.540;8.576;2022-11-11T07:53:56;8.40;99.90
16827;DHT22;8530;49.540;8.576;2022-11-11T07:56:23;8.50;99.90
16827;DHT22;8530;49.540;8.576;2022-11-11T07:58:50;8.60;99.90
16827;DHT22;8530;49.540;8.576;2022-11-11T08:01:17;8.60;99.90
16827;DHT22;8530;49.540;8.576;2022-11-11T08:03:45;8.70;99.90
16827;DHT22;8530;49.540;8.576;2022-11-11T08:06:15;8.70;99.90
16827;DHT22;8530;49.540;8.576;2022-11-11T08:08:42;8.70;99.90
16827;DHT22;8530;49.540;8.576;2022-11-11T08:11:09;8.80;99.90
16827;DHT22;8530;49.540;8.576;2022-11-11T08:13:38;8.90;99.90
16827;DHT22;8530;49.540;8.576;2022-11-11T08:16:08;8.90;99.90
16827;DHT22;8530;49.540;8.576;2022-11-11T08:18:36;9.00;99.90
16827;DHT22;8530;49.540;8.576;2022-11-11T08:21:05;9.10;99.90
16827;DHT22;8530;49.540;8.576;2022-11-11T08:23:32;9.30;99.90
16827;DHT22;8530;49.540;8.576;2022-11-11T08:25:59;9.50;99.90
16827;DHT22;8530;49.540;8.576;2022-11-11T08:28:27;9.70;99.90
16827;DHT22;8530;49.540;8.576;2022-11-11T08:30:54;9.90;99.90
16827;DHT22;8530;49.540;8.576;2022-11-11T08:33:24;10.00;99.90
16827;DHT22;8530;49.540;8.576;2022-11-11T08:35:51;10.10;99.90
16827;DHT22;8530;49.540;8.576;2022-11-11T08:38:20;10.10;99.90
16827;DHT22;8530;49.540;8.576;2022-11-11T08:40:47;10.20;99.90
16827;DHT22;8530;49.540;8.576;2022-11-11T08:43:15;10.20;99.90
16827;DHT22;8530;49.540;8.576;2022-11-11T08:45:41;10.40;99.90
16827;DHT22;8530;49.540;8.576;2022-11-11T08:48:08;10.50;99.90
16827;DHT22;8530;49.540;8.576;2022-11-11T08:50:36;10.60;99.90
16827;DHT22;8530;49.540;8.576;2022-11-11T08:53:04;10.60;99.90
16827;DHT22;8530;49.540;8.576;2022-11-11T08:55:34;10.60;99.90
16827;DHT22;8530;49.540;8.576;2022-11-11T08:58:03;10.60;99.90
16827;DHT22;8530;49.540;8.576;2022-11-11T09:00:30;10.60;99.90
16827;DHT22;8530;49.540;8.576;2022-11-11T09:03:00;10.60;99.90
16827;DHT22;8530;49.540;8.576;2022-11-11T09:05:27;10.60;99.90
16827;DHT22;8530;49.540;8.576;2022-11-11T09:07:54;10.50;99.90
16827;DHT22;8530;49.540;8.576;2022-11-11T09:10:21;10.50;99.90
16827;DHT22;8530;49.540;8.576;2022-11-11T09:12:54;10.50;99.90
16827;DHT22;8530;49.540;8.576;2022-11-11T09:15:21;10.50;99.90
16827;DHT22;8530;49.540;8.576;2022-11-11T09:17:48;10.50;99.90
16827;DHT22;8530;49.540;8.576;2022-11-11T09:20:15;10.50;99.90
16827;DHT22;8530;49.540;8.576;2022-11-11T09:22:43;10.50;99.90
16827;DHT22;8530;49.540;8.576;2022-11-11T09:25:10;10.50;99.90
16827;DHT22;8530;49.540;8.576;2022-11-11T09:27:37;10.60;99.90
16827;DHT22;8530;49.540;8.576;2022-11-11T09:30:06;10.60;99.90
16827;DHT22;8530;49.540;8.576;2022-11-11T09:32:33;10.70;99.90
16827;DHT22;8530;49.540;8.576;2022-11-11T09:35:01;10.70;99.90
16827;DHT22;8530;49.540;8.576;2022-11-11T09:37:28;10.70;99.90
16827;DHT22;8530;49.540;8.576;2022-11-11T09:39:55;10.80;99.90
16827;DHT22;8530;49.540;8.576;2022-11-11T09:42:32;10.80;99.90
16827;DHT22;8530;49.540;8.576;2022-11-11T09:45:14;10.90;99.90
16827;DHT22;8530;49.540;8.576;2022-11-11T09:47:51;11.00;99.90
16827;DHT22;8530;49.540;8.576;2022-11-11T09:50:23;11.00;99.90
16827;DHT22;8530;49.540;8.576;2022-11-11T09:52:56;11.10;99.90
16827;DHT22;8530;49.540;8.576;2022-11-11T09:55:29;11.10;99.90
16827;DHT22;8530;49.540;8.576;2022-11-11T09:58:02;11.20;99.90
16827;DHT22;8530;49.540;8.576;2022-11-11T10:00:34;11.20;99.90
16827;DHT22;8530;49.540;8.576;2022-11-11T10:03:11;11.30;99.90
16827;DHT22;8530;49.540;8.576;2022-11-11T10:05:44;11.40;99.90
16827;DHT22;8530;49.540;8.576;2022-11-11T10:08:15;11.40;99.90
16827;DHT22;8530;49.540;8.576;2022-11-11T10:10:44;11.30;99.90
16827;DHT22;8530;49.540;8.576;2022-11-11T10:13:13;11.40;99.90
16827;DHT22;8530;49.540;8.576;2022-11-11T10:15:48;11.50;99.90
16827;DHT22;8530;49.540;8.576;2022-11-11T10:18:28;11.60;99.90
16827;DHT22;8530;49.540;8.576;2022-11-11T10:21:00;11.70;99.90
16827;DHT22;8530;49.540;8.576;2022-11-11T10:23:31;11.70;99.90
16827;DHT22;8530;49.540;8.576;2022-11-11T10:26:04;11.70;99.90
16827;DHT22;8530;49.540;8.576;2022-11-11T10:28:35;11.90;99.90
16827;DHT22;8530;49.540;8.576;2022-11-11T10:31:05;12.00;99.90
16827;DHT22;8530;49.540;8.576;2022-11-11T10:33:41;12.00;99.90
16827;DHT22;8530;49.540;8.576;2022-11-11T10:36:15;12.10;99.90
16827;DHT22;8530;49.540;8.576;2022-11-11T10:38:48;12.10;99.90
16827;DHT22;8530;49.540;8.576;2022-11-11T10:41:19;12.10;99.90
16827;DHT22;8530;49.540;8.576;2022-11-11T10:43:47;12.20;99.90
16827;DHT22;8530;49.540;8.576;2022-11-11T10:46:18;12.20;99.90
16827;DHT22;8530;49.540;8.576;2022-11-11T10:48:52;12.20;99.90
16827;DHT22;8530;49.540;8.576;2022-11-11T10:51:20;12.20;99.90
16827;DHT22;8530;49.540;8.576;2022-11-11T10:53:56;12.30;99.90
16827;DHT22;8530;49.540;8.576;2022-11-11T10:56:28;12.30;99.90
16827;DHT22;8530;49.540;8.576;2022-11-11T10:59:01;12.20;99.90
16827;DHT22;8530;49.540;8.576;2022-11-11T11:01:36;12.10;99.90
16827;DHT22;8530;49.540;8.576;2022-11-11T11:04:08;12.00;99.90
16827;DHT22;8530;49.540;8.576;2022-11-11T11:06:38;12.00;99.90
16827;DHT22;8530;49.540;8.576;2022-11-11T11:09:11;12.10;99.90
16827;DHT22;8530;49.540;8.576;2022-11-11T11:11:43;12.10;99.90
16827;DHT22;8530;49.540;8.576;2022-11-11T11:14:18;12.20;99.90
16827;DHT22;8530;49.540;8.576;2022-11-11T11:16:50;12.30;99.90
16827;DHT22;8530;49.540;8.576;2022-11-11T11:19:21;12.30;99.90
16827;DHT22;8530;49.540;8.576;2022-11-11T11:21:50;12.30;99.90
16827;DHT22;8530;49.540;8.576;2022-11-11T11:24:23;12.30;99.90
16827;DHT22;8530;49.540;8.576;2022-11-11T11:26:52;12.40;99.90
16827;DHT22;8530;49.540;8.576;2022-11-11T11:29:27;12.40;99.90
16827;DHT22;8530;49.540;8.576;2022-11-11T11:31:55;12.20;99.90
16827;DHT22;8530;49.540;8.576;2022-11-11T11:34:45;12.10;99.90
16827;DHT22;8530;49.540;8.576;2022-11-11T11:37:12;12.00;99.90
16827;DHT22;8530;49.540;8.576;2022-11-11T11:39:39;12.10;99.90
16827;DHT22;8530;49.540;8.576;2022-11-11T11:42:06;12.20;99.90
16827;DHT22;8530;49.540;8.576;2022-11-11T11:44:36;12.30;99.90
16827;DHT22;8530;49.540;8.576;2022-11-11T11:47:16;12.30;99.90
16827;DHT22;8530;49.540;8.576;2022-11-11T11:50:28;12.40;99.90
16827;DHT22;8530;49.540;8.576;2022-11-11T11:53:06;12.50;99.90
16827;DHT22;8530;49.540;8.576;2022-11-11T11:55:38;12.60;99.90
16827;DHT22;8530;49.540;8.576;2022-11-11T11:58:35;12.70;99.90
16827;DHT22;8530;49.540;8.576;2022-11-11T12:01:10;12.80;99.90
16827;DHT22;8530;49.540;8.576;2022-11-11T12:03:58;12.80;99.90
16827;DHT22;8530;49.540;8.576;2022-11-11T12:06:38;12.90;99.90
16827;DHT22;8530;49.540;8.576;2022-11-11T12:09:19;13.00;99.90
16827;DHT22;8530;49.540;8.576;2022-11-11T12:11:54;13.00;99.90
16827;DHT22;8530;49.540;8.576;2022-11-11T12:14:47;13.00;99.90
16827;DHT22;8530;49.540;8.576;2022-11-11T12:17:26;13.10;99.90
16827;DHT22;8530;49.540;8.576;2022-11-11T12:20:03;13.10;99.90
16827;DHT22;8530;49.540;8.576;2022-11-11T12:23:04;13.10;99.90
16827;DHT22;8530;49.540;8.576;2022-11-11T12:25:51;13.10;99.90
16827;DHT22;8530;49.540;8.576;2022-11-11T12:28:35;13.20;99.90
16827;DHT22;8530;49.540;8.576;2022-11-11T12:31:16;13.20;99.90
16827;DHT22;8530;49.540;8.576;2022-11-11T12:33:59;13.30;99.90
16827;DHT22;8530;49.540;8.576;2022-11-11T12:36:34;13.30;99.90
16827;DHT22;8530;49.540;8.576;2022-11-11T12:39:05;13.10;99.90
16827;DHT22;8530;49.540;8.576;2022-11-11T12:41:44;13.10;99.90
16827;DHT22;8530;49.540;8.576;2022-11-11T12:44:14;13.20;99.90
16827;DHT22;8530;49.540;8.576;2022-11-11T12:46:57;13.30;99.90
16827;DHT22;8530;49.540;8.576;2022-11-11T12:49:39;13.40;99.90
16827;DHT22;8530;49.540;8.576;2022-11-11T12:52:19;13.50;99.90
16827;DHT22;8530;49.540;8.576;2022-11-11T12:54:59;13.60;99.90
16827;DHT22;8530;49.540;8.576;2022-11-11T12:57:35;13.70;99.90
16827;DHT22;8530;49.540;8.576;2022-11-11T13:00:10;13.70;99.90
16827;DHT22;8530;49.540;8.576;2022-11-11T13:02:57;13.70;99.90
16827;DHT22;8530;49.540;8.576;2022-11-11T13:05:28;13.70;99.90
16827;DHT22;8530;49.540;8.576;2022-11-11T13:11:05;13.70;99.70
16827;DHT22;8530;49.540;8.576;2022-11-11T13:13:44;13.70;99.60
16827;DHT22;8530;49.540;8.576;2022-11-11T13:16:14;13.70;99.60
16827;DHT22;8530;49.540;8.576;2022-11-11T13:18:46;13.60;99.60
16827;DHT22;8530;49.540;8.576;2022-11-11T13:21:19;13.60;99.50
16827;DHT22;8530;49.540;8.576;2022-11-11T13:23:49;13.50;99.40
16827;DHT22;8530;49.540;8.576;2022-11-11T13:26:25;13.40;99.40
16827;DHT22;8530;49.540;8.576;2022-11-11T13:29:03;13.30;99.30
16827;DHT22;8530;49.540;8.576;2022-11-11T13:31:34;13.20;99.30
16827;DHT22;8530;49.540;8.576;2022-11-11T13:34:04;13.20;99.40
16827;DHT22;8530;49.540;8.576;2022-11-11T13:36:40;13.10;99.40
16827;DHT22;8530;49.540;8.576;2022-11-11T13:39:21;13.10;99.50
16827;DHT22;8530;49.540;8.576;2022-11-11T13:41:50;13.10;99.50
16827;DHT22;8530;49.540;8.576;2022-11-11T13:44:21;13.00;99.40
16827;DHT22;8530;49.540;8.576;2022-11-11T13:46:50;13.00;99.40
16827;DHT22;8530;49.540;8.576;2022-11-11T13:49:23;12.90;99.30
16827;DHT22;8530;49.540;8.576;2022-11-11T13:51:57;12.80;99.40
16827;DHT22;8530;49.540;8.576;2022-11-11T13:54:28;12.80;99.50
16827;DHT22;8530;49.540;8.576;2022-11-11T13:57:03;12.80;99.50
16827;DHT22;8530;49.540;8.576;2022-11-11T13:59:33;12.80;99.70
16827;DHT22;8530;49.540;8.576;2022-11-11T14:02:30;12.80;99.40
16827;DHT22;8530;49.540;8.576;2022-11-11T14:05:19;12.80;99.40
16827;DHT22;8530;49.540;8.576;2022-11-11T14:07:49;12.80;99.50
16827;DHT22;8530;49.540;8.576;2022-11-11T14:10:49;12.80;99.50
16827;DHT22;8530;49.540;8.576;2022-11-11T14:13:37;12.80;99.50
16827;DHT22;8530;49.540;8.576;2022-11-11T14:16:09;12.80;99.40
16827;DHT22;8530;49.540;8.576;2022-11-11T14:18:43;12.70;99.40
16827;DHT22;8530;49.540;8.576;2022-11-11T14:24:22;12.50;99.20
16827;DHT22;8530;49.540;8.576;2022-11-11T14:26:59;12.40;99.20
16827;DHT22;8530;49.540;8.576;2022-11-11T14:29:30;12.30;99.20
16827;DHT22;8530;49.540;8.576;2022-11-11T14:35:17;12.00;99.20
16827;DHT22;8530;49.540;8.576;2022-11-11T14:38:13;11.80;99.20
16827;DHT22;8530;49.540;8.576;2022-11-11T14:40:41;11.70;99.20
16827;DHT22;8530;49.540;8.576;2022-11-11T14:43:42;11.50;99.30
16827;DHT22;8530;49.540;8.576;2022-11-11T14:46:10;11.40;99.50
16827;DHT22;8530;49.540;8.576;2022-11-11T14:48:57;11.40;99.60
16827;DHT22;8530;49.540;8.576;2022-11-11T14:51:46;11.40;99.80
16827;DHT22;8530;49.540;8.576;2022-11-11T14:54:20;11.30;99.80
16827;DHT22;8530;49.540;8.576;2022-11-11T14:56:54;11.20;99.80
16827;DHT22;8530;49.540;8.576;2022-11-11T14:59:26;11.20;99.90
16827;DHT22;8530;49.540;8.576;2022-11-11T15:01:54;11.10;99.90
16827;DHT22;8530;49.540;8.576;2022-11-11T15:04:23;11.00;99.90
16827;DHT22;8530;49.540;8.576;2022-11-11T15:06:55;11.00;99.90
16827;DHT22;8530;49.540;8.576;2022-11-11T15:09:43;10.90;99.90
16827;DHT22;8530;49.540;8.576;2022-11-11T15:12:22;10.80;99.90
16827;DHT22;8530;49.540;8.576;2022-11-11T15:14:59;10.80;99.90
16827;DHT22;8530;49.540;8.576;2022-11-11T15:17:35;10.70;99.90
16827;DHT22;8530;49.540;8.576;2022-11-11T15:20:18;10.70;99.90
16827;DHT22;8530;49.540;8.576;2022-11-11T15:22:55;10.70;99.90
16827;DHT22;8530;49.540;8.576;2022-11-11T15:25:33;10.70;99.90
16827;DHT22;8530;49.540;8.576;2022-11-11T15:28:17;10.70;99.90
16827;DHT22;8530;49.540;8.576;2022-11-11T15:30:56;10.70;99.90
16827;DHT22;8530;49.540;8.576;2022-11-11T15:33:31;10.70;99.90
16827;DHT22;8530;49.540;8.576;2022-11-11T15:36:07;10.70;99.90
16827;DHT22;8530;49.540;8.576;2022-11-11T15:38:36;10.60;99.90
16827;DHT22;8530;49.540;8.576;2022-11-11T15:41:03;10.60;99.90
16827;DHT22;8530;49.540;8.576;2022-11-11T15:43:31;10.60;99.90
16827;DHT22;8530;49.540;8.576;2022-11-11T15:46:01;10.60;99.90
16827;DHT22;8530;49.540;8.576;2022-11-11T15:48:33;10.50;99.90
16827;DHT22;8530;49.540;8.576;2022-11-11T15:51:14;10.60;99.90
16827;DHT22;8530;49.540;8.576;2022-11-11T15:53:41;10.50;99.90
16827;DHT22;8530;49.540;8.576;2022-11-11T15:56:08;10.50;99.90
16827;DHT22;8530;49.540;8.576;2022-11-11T15:58:34;10.50;99.90
16827;DHT22;8530;49.540;8.576;2022-11-11T16:01:05;10.40;99.90
16827;DHT22;8530;49.540;8.576;2022-11-11T16:03:33;10.40;99.90
16827;DHT22;8530;49.540;8.576;2022-11-11T16:06:03;10.30;99.90
16827;DHT22;8530;49.540;8.576;2022-11-11T16:08:31;10.30;99.90
16827;DHT22;8530;49.540;8.576;2022-11-11T16:10:59;10.30;99.90
16827;DHT22;8530;49.540;8.576;2022-11-11T16:13:31;10.30;99.90
16827;DHT22;8530;49.540;8.576;2022-11-11T16:16:04;10.30;99.90
16827;DHT22;8530;49.540;8.576;2022-11-11T16:18:37;10.30;99.90
16827;DHT22;8530;49.540;8.576;2022-11-11T16:21:08;10.30;99.90
16827;DHT22;8530;49.540;8.576;2022-11-11T16:23:37;10.30;99.90
16827;DHT22;8530;49.540;8.576;2022-11-11T16:26:05;10.30;99.90
16827;DHT22;8530;49.540;8.576;2022-11-11T16:28:37;10.30;99.90
16827;DHT22;8530;49.540;8.576;2022-11-11T16:31:29;10.30;99.90
16827;DHT22;8530;49.540;8.576;2022-11-11T16:34:31;10.30;99.90
16827;DHT22;8530;49.540;8.576;2022-11-11T16:36:58;10.30;99.90